sensor_id;sensor_type;location;lat;lon;timestamp;pressure;altitude;pressure_sealevel;temperature;humidity
57644;BME280;43474;46.510;6.686;2023-04-09T00:01:05;96798.28;;;6.11;100.00
57644;BME280;43474;46.510;6.686;2023-04-09T00:03:33;96785.13;;;6.04;100.00
57644;BME280;43474;46.510;6.686;2023-04-09T00:05:59;96781.31;;;6.07;100.00
57644;BME280;43474;46.510;6.686;2023-04-09T00:08:25;96793.03;;;6.04;100.00
57644;BME280;43474;46.510;6.686;2023-04-09T00:10:51;96791.84;;;6.13;100.00
57644;BME280;43474;46.510;6.686;2023-04-09T00:13:17;96795.66;;;6.04;100.00
57644;BME280;43474;46.510;6.686;2023-04-09T00:15:44;96795.50;;;6.12;100.00
57644;BME280;43474;46.510;6.686;2023-04-09T00:18:10;96781.00;;;5.88;100.00
57644;BME280;43474;46.510;6.686;2023-04-09T00:20:35;96761.50;;;5.63;100.00
57644;BME280;43474;46.510;6.686;2023-04-09T00:23:01;96770.63;;;5.67;100.00
57644;BME280;43474;46.510;6.686;2023-04-09T00:25:26;96785.41;;;5.75;100.00
57644;BME280;43474;46.510;6.686;2023-04-09T00:27:53;96785.41;;;5.75;100.00
57644;BME280;43474;46.510;6.686;2023-04-09T00:30:20;96776.50;;;5.69;100.00
57644;BME280;43474;46.510;6.686;2023-04-09T00:32:45;96778.09;;;5.63;100.00
57644;BME280;43474;46.510;6.686;2023-04-09T00:35:11;96784.59;;;5.67;100.00
57644;BME280;43474;46.510;6.686;2023-04-09T00:37:37;96775.91;;;5.67;100.00
57644;BME280;43474;46.510;6.686;2023-04-09T00:40:03;96792.13;;;5.84;100.00
57644;BME280;43474;46.510;6.686;2023-04-09T00:42:36;96766.38;;;5.66;100.00
57644;BME280;43474;46.510;6.686;2023-04-09T00:45:02;96792.13;;;5.77;100.00
57644;BME280;43474;46.510;6.686;2023-04-09T00:47:28;96761.50;;;5.63;100.00
57644;BME280;43474;46.510;6.686;2023-04-09T00:49:55;96771.66;;;5.73;100.00
57644;BME280;43474;46.510;6.686;2023-04-09T00:52:22;96778.13;;;5.70;100.00
57644;BME280;43474;46.510;6.686;2023-04-09T00:54:48;96775.66;;;5.62;100.00
57644;BME280;43474;46.510;6.686;2023-04-09T00:57:14;96783.59;;;5.75;100.00
57644;BME280;43474;46.510;6.686;2023-04-09T00:59:41;96782.00;;;5.81;100.00
57644;BME280;43474;46.510;6.686;2023-04-09T01:02:07;96745.09;;;5.54;100.00
57644;BME280;43474;46.510;6.686;2023-04-09T01:04:32;96782.13;;;5.66;100.00
57644;BME280;43474;46.510;6.686;2023-04-09T01:07:14;96759.44;;;5.52;100.00
57644;BME280;43474;46.510;6.686;2023-04-09T01:09:48;96775.91;;;5.67;100.00
57644;BME280;43474;46.510;6.686;2023-04-09T01:12:18;96784.75;;;5.66;100.00
57644;BME280;43474;46.510;6.686;2023-04-09T01:17:18;96765.53;;;5.52;100.00
57644;BME280;43474;46.510;6.686;2023-04-09T01:22:31;96772.84;;;5.22;100.00
57644;BME280;43474;46.510;6.686;2023-04-09T01:25:11;96794.47;;;5.24;100.00
57644;BME280;43474;46.510;6.686;2023-04-09T01:28:14;96790.19;;;5.16;100.00
57644;BME280;43474;46.510;6.686;2023-04-09T01:30:42;96795.41;;;5.10;100.00
57644;BME280;43474;46.510;6.686;2023-04-09T01:33:12;96780.63;;;5.02;100.00
57644;BME280;43474;46.510;6.686;2023-04-09T01:35:41;96783.88;;;5.11;100.00
57644;BME280;43474;46.510;6.686;2023-04-09T01:38:07;96777.03;;;5.16;100.00
57644;BME280;43474;46.510;6.686;2023-04-09T01:40:34;96790.00;;;5.18;100.00
57644;BME280;43474;46.510;6.686;2023-04-09T01:43:00;96774.38;;;5.10;100.00
57644;BME280;43474;46.510;6.686;2023-04-09T01:45:26;96791.03;;;5.24;100.00
57644;BME280;43474;46.510;6.686;2023-04-09T01:47:53;96769.47;;;5.00;100.00
57644;BME280;43474;46.510;6.686;2023-04-09T01:50:19;96779.19;;;5.06;100.00
57644;BME280;43474;46.510;6.686;2023-04-09T01:52:45;96769.69;;;4.99;100.00
57644;BME280;43474;46.510;6.686;2023-04-09T01:55:11;96774.59;;;5.08;100.00
57644;BME280;43474;46.510;6.686;2023-04-09T01:57:37;96775.09;;;4.97;100.00
57644;BME280;43474;46.510;6.686;2023-04-09T02:00:04;96778.56;;;4.98;100.00
57644;BME280;43474;46.510;6.686;2023-04-09T02:02:36;96775.59;;;5.07;100.00
57644;BME280;43474;46.510;6.686;2023-04-09T02:05:08;96761.56;;;4.93;100.00
57644;BME280;43474;46.510;6.686;2023-04-09T02:07:43;96785.91;;;5.09;100.00
57644;BME280;43474;46.510;6.686;2023-04-09T02:10:12;96762.56;;;4.92;100.00
57644;BME280;43474;46.510;6.686;2023-04-09T02:12:41;96781.09;;;5.12;100.00
57644;BME280;43474;46.510;6.686;2023-04-09T02:15:09;96794.78;;;5.08;100.00
57644;BME280;43474;46.510;6.686;2023-04-09T02:17:35;96781.13;;;4.91;100.00
57644;BME280;43474;46.510;6.686;2023-04-09T02:20:01;96776.22;;;4.81;100.00
57644;BME280;43474;46.510;6.686;2023-04-09T02:22:27;96769.69;;;4.71;100.00
57644;BME280;43474;46.510;6.686;2023-04-09T02:24:52;96808.34;;;4.83;100.00
57644;BME280;43474;46.510;6.686;2023-04-09T02:27:18;96808.34;;;4.83;100.00
57644;BME280;43474;46.510;6.686;2023-04-09T02:29:43;96770.00;;;4.61;100.00
57644;BME280;43474;46.510;6.686;2023-04-09T02:32:09;96769.56;;;4.57;100.00
57644;BME280;43474;46.510;6.686;2023-04-09T02:34:34;96808.03;;;4.72;100.00
57644;BME280;43474;46.510;6.686;2023-04-09T02:37:00;96769.91;;;4.48;100.00
57644;BME280;43474;46.510;6.686;2023-04-09T02:39:25;96793.94;;;4.51;100.00
57644;BME280;43474;46.510;6.686;2023-04-09T02:41:51;96810.34;;;4.53;100.00
57644;BME280;43474;46.510;6.686;2023-04-09T02:44:17;96803.03;;;4.49;100.00
57644;BME280;43474;46.510;6.686;2023-04-09T02:46:44;96818.78;;;4.49;100.00
57644;BME280;43474;46.510;6.686;2023-04-09T02:49:10;96790.97;;;4.33;100.00
57644;BME280;43474;46.510;6.686;2023-04-09T02:51:36;96803.41;;;4.24;100.00
57644;BME280;43474;46.510;6.686;2023-04-09T02:54:02;96795.72;;;4.23;100.00
57644;BME280;43474;46.510;6.686;2023-04-09T02:56:27;96804.72;;;4.35;100.00
57644;BME280;43474;46.510;6.686;2023-04-09T02:58:53;96801.28;;;4.34;100.00
57644;BME280;43474;46.510;6.686;2023-04-09T03:01:19;96818.59;;;4.29;100.00
57644;BME280;43474;46.510;6.686;2023-04-09T03:03:45;96802.59;;;4.24;100.00
57644;BME280;43474;46.510;6.686;2023-04-09T03:06:11;96795.59;;;4.09;100.00
57644;BME280;43474;46.510;6.686;2023-04-09T03:08:36;96799.00;;;4.10;100.00
57644;BME280;43474;46.510;6.686;2023-04-09T03:11:02;96800.78;;;4.03;100.00
57644;BME280;43474;46.510;6.686;2023-04-09T03:13:28;96801.31;;;3.98;100.00
57644;BME280;43474;46.510;6.686;2023-04-09T03:15:54;96801.38;;;4.05;100.00
57644;BME280;43474;46.510;6.686;2023-04-09T03:18:19;96808.00;;;4.22;100.00
57644;BME280;43474;46.510;6.686;2023-04-09T03:20:45;96809.94;;;4.13;100.00
57644;BME280;43474;46.510;6.686;2023-04-09T03:23:10;96792.25;;;4.01;100.00
57644;BME280;43474;46.510;6.686;2023-04-09T03:25:36;96807.44;;;4.05;100.00
57644;BME280;43474;46.510;6.686;2023-04-09T03:28:01;96789.06;;;3.84;100.00
57644;BME280;43474;46.510;6.686;2023-04-09T03:30:28;96732.56;;;3.45;100.00
57644;BME280;43474;46.510;6.686;2023-04-09T03:32:53;96786.84;;;3.87;100.00
57644;BME280;43474;46.510;6.686;2023-04-09T03:35:20;96802.28;;;3.97;100.00
57644;BME280;43474;46.510;6.686;2023-04-09T03:37:45;96801.63;;;3.88;100.00
57644;BME280;43474;46.510;6.686;2023-04-09T03:40:11;96794.00;;;3.94;100.00
57644;BME280;43474;46.510;6.686;2023-04-09T03:42:37;96782.19;;;3.83;100.00
57644;BME280;43474;46.510;6.686;2023-04-09T03:45:03;96797.44;;;3.94;100.00
57644;BME280;43474;46.510;6.686;2023-04-09T03:47:29;96784.63;;;3.84;100.00
57644;BME280;43474;46.510;6.686;2023-04-09T03:49:55;96793.09;;;3.86;100.00
57644;BME280;43474;46.510;6.686;2023-04-09T03:52:20;96794.22;;;3.77;100.00
57644;BME280;43474;46.510;6.686;2023-04-09T03:54:46;96734.56;;;3.43;100.00
57644;BME280;43474;46.510;6.686;2023-04-09T03:57:11;96807.84;;;3.87;100.00
57644;BME280;43474;46.510;6.686;2023-04-09T03:59:37;96790.53;;;3.72;100.00
57644;BME280;43474;46.510;6.686;2023-04-09T04:02:03;96792.47;;;3.63;100.00
57644;BME280;43474;46.510;6.686;2023-04-09T04:04:28;96799.72;;;3.82;100.00
57644;BME280;43474;46.510;6.686;2023-04-09T04:06:54;96795.75;;;3.72;100.00
57644;BME280;43474;46.510;6.686;2023-04-09T04:09:20;96785.66;;;3.69;100.00
57644;BME280;43474;46.510;6.686;2023-04-09T04:11:45;96796.97;;;3.69;100.00
57644;BME280;43474;46.510;6.686;2023-04-09T04:14:11;96799.06;;;3.59;100.00
57644;BME280;43474;46.510;6.686;2023-04-09T04:16:39;96795.97;;;3.55;100.00
57644;BME280;43474;46.510;6.686;2023-04-09T04:19:04;96768.53;;;3.36;100.00
57644;BME280;43474;46.510;6.686;2023-04-09T04:21:30;96785.44;;;3.49;100.00
57644;BME280;43474;46.510;6.686;2023-04-09T04:23:55;96793.44;;;3.47;100.00
57644;BME280;43474;46.510;6.686;2023-04-09T04:26:21;96782.16;;;3.32;100.00
57644;BME280;43474;46.510;6.686;2023-04-09T04:28:47;96800.22;;;3.42;100.00
57644;BME280;43474;46.510;6.686;2023-04-09T04:31:12;96792.56;;;3.40;100.00
57644;BME280;43474;46.510;6.686;2023-04-09T04:33:40;96809.06;;;3.55;100.00
57644;BME280;43474;46.510;6.686;2023-04-09T04:36:07;96738.75;;;3.08;100.00
57644;BME280;43474;46.510;6.686;2023-04-09T04:38:33;96804.66;;;3.41;100.00
57644;BME280;43474;46.510;6.686;2023-04-09T04:41:00;96810.25;;;3.38;100.00
57644;BME280;43474;46.510;6.686;2023-04-09T04:43:26;96809.81;;;3.34;100.00
57644;BME280;43474;46.510;6.686;2023-04-09T04:45:51;96802.59;;;3.36;100.00
57644;BME280;43474;46.510;6.686;2023-04-09T04:48:17;96813.31;;;3.42;100.00
57644;BME280;43474;46.510;6.686;2023-04-09T04:50:42;96809.28;;;3.39;100.00
57644;BME280;43474;46.510;6.686;2023-04-09T04:53:08;96815.06;;;3.49;100.00
57644;BME280;43474;46.510;6.686;2023-04-09T04:55:37;96819.91;;;3.52;100.00
57644;BME280;43474;46.510;6.686;2023-04-09T04:58:04;96820.19;;;3.43;100.00
57644;BME280;43474;46.510;6.686;2023-04-09T05:00:30;96832.75;;;3.47;100.00
57644;BME280;43474;46.510;6.686;2023-04-09T05:02:55;96813.16;;;3.43;100.00
57644;BME280;43474;46.510;6.686;2023-04-09T05:05:21;96814.78;;;3.44;100.00
57644;BME280;43474;46.510;6.686;2023-04-09T05:07:47;96828.41;;;3.54;100.00
57644;BME280;43474;46.510;6.686;2023-04-09T05:10:12;96818.41;;;3.43;100.00
57644;BME280;43474;46.510;6.686;2023-04-09T05:12:38;96812.88;;;3.38;100.00
57644;BME280;43474;46.510;6.686;2023-04-09T05:15:04;96818.56;;;3.42;100.00
57644;BME280;43474;46.510;6.686;2023-04-09T05:17:30;96828.03;;;3.43;100.00
57644;BME280;43474;46.510;6.686;2023-04-09T05:19:55;96837.38;;;3.45;100.00
57644;BME280;43474;46.510;6.686;2023-04-09T05:22:22;96849.28;;;3.48;100.00
57644;BME280;43474;46.510;6.686;2023-04-09T05:24:48;96833.03;;;3.37;100.00
57644;BME280;43474;46.510;6.686;2023-04-09T05:27:13;96822.53;;;3.37;100.00
57644;BME280;43474;46.510;6.686;2023-04-09T05:29:39;96841.41;;;3.48;100.00
57644;BME280;43474;46.510;6.686;2023-04-09T05:32:04;96849.28;;;3.48;100.00
57644;BME280;43474;46.510;6.686;2023-04-09T05:34:31;96847.56;;;3.55;100.00
57644;BME280;43474;46.510;6.686;2023-04-09T05:36:56;96832.22;;;3.37;100.00
57644;BME280;43474;46.510;6.686;2023-04-09T05:39:22;96834.41;;;3.33;100.00
57644;BME280;43474;46.510;6.686;2023-04-09T05:41:47;96855.34;;;3.33;100.00
57644;BME280;43474;46.510;6.686;2023-04-09T05:44:13;96842.88;;;3.35;100.00
57644;BME280;43474;46.510;6.686;2023-04-09T05:46:39;96836.38;;;3.31;100.00
57644;BME280;43474;46.510;6.686;2023-04-09T05:49:05;96855.69;;;3.45;100.00
57644;BME280;43474;46.510;6.686;2023-04-09T05:51:30;96828.59;;;3.38;100.00
57644;BME280;43474;46.510;6.686;2023-04-09T05:53:56;96850.00;;;3.56;100.00
57644;BME280;43474;46.510;6.686;2023-04-09T05:56:21;96855.69;;;3.60;100.00
57644;BME280;43474;46.510;6.686;2023-04-09T05:58:47;96859.31;;;3.59;100.00
57644;BME280;43474;46.510;6.686;2023-04-09T06:01:13;96839.91;;;3.53;100.00
57644;BME280;43474;46.510;6.686;2023-04-09T06:03:39;96821.66;;;3.45;100.00
57644;BME280;43474;46.510;6.686;2023-04-09T06:06:05;96874.03;;;3.89;100.00
57644;BME280;43474;46.510;6.686;2023-04-09T06:08:31;96874.19;;;4.03;100.00
57644;BME280;43474;46.510;6.686;2023-04-09T06:10:57;96850.88;;;3.93;100.00
57644;BME280;43474;46.510;6.686;2023-04-09T06:13:22;96868.47;;;4.14;100.00
57644;BME280;43474;46.510;6.686;2023-04-09T06:15:49;96869.72;;;4.18;100.00
57644;BME280;43474;46.510;6.686;2023-04-09T06:18:14;96867.34;;;4.23;100.00
57644;BME280;43474;46.510;6.686;2023-04-09T06:20:40;96875.28;;;4.30;100.00
57644;BME280;43474;46.510;6.686;2023-04-09T06:23:06;96884.53;;;4.47;100.00
57644;BME280;43474;46.510;6.686;2023-04-09T06:25:31;96869.38;;;4.43;100.00
57644;BME280;43474;46.510;6.686;2023-04-09T06:27:57;96892.81;;;4.65;100.00
57644;BME280;43474;46.510;6.686;2023-04-09T06:30:23;96891.63;;;4.68;100.00
57644;BME280;43474;46.510;6.686;2023-04-09T06:32:49;96889.75;;;4.83;100.00
57644;BME280;43474;46.510;6.686;2023-04-09T06:35:15;96877.81;;;4.81;100.00
57644;BME280;43474;46.510;6.686;2023-04-09T06:37:41;96867.50;;;4.79;100.00
57644;BME280;43474;46.510;6.686;2023-04-09T06:40:07;96878.28;;;4.91;100.00
57644;BME280;43474;46.510;6.686;2023-04-09T06:42:33;96892.63;;;5.16;100.00
57644;BME280;43474;46.510;6.686;2023-04-09T06:44:58;96887.13;;;5.33;100.00
57644;BME280;43474;46.510;6.686;2023-04-09T06:47:24;96890.63;;;5.47;100.00
57644;BME280;43474;46.510;6.686;2023-04-09T06:49:49;96893.00;;;6.04;100.00
57644;BME280;43474;46.510;6.686;2023-04-09T06:52:15;96883.06;;;8.18;100.00
57644;BME280;43474;46.510;6.686;2023-04-09T06:54:41;96878.22;;;9.42;100.00
57644;BME280;43474;46.510;6.686;2023-04-09T06:57:08;96866.56;;;10.41;100.00
57644;BME280;43474;46.510;6.686;2023-04-09T06:59:33;96865.75;;;10.71;98.27
57644;BME280;43474;46.510;6.686;2023-04-09T07:01:59;96871.88;;;11.25;95.57
57644;BME280;43474;46.510;6.686;2023-04-09T07:04:25;96880.53;;;11.55;92.58
57644;BME280;43474;46.510;6.686;2023-04-09T07:06:51;96859.34;;;12.19;89.46
57644;BME280;43474;46.510;6.686;2023-04-09T07:09:19;96871.81;;;12.19;86.57
57644;BME280;43474;46.510;6.686;2023-04-09T07:11:45;96875.19;;;12.71;84.85
57644;BME280;43474;46.510;6.686;2023-04-09T07:14:10;96874.31;;;12.82;82.60
57644;BME280;43474;46.510;6.686;2023-04-09T07:16:36;96872.16;;;13.25;83.62
57644;BME280;43474;46.510;6.686;2023-04-09T07:19:02;96870.38;;;13.30;78.96
57644;BME280;43474;46.510;6.686;2023-04-09T07:21:27;96883.16;;;13.84;79.75
57644;BME280;43474;46.510;6.686;2023-04-09T07:23:53;96890.44;;;14.10;78.37
57644;BME280;43474;46.510;6.686;2023-04-09T07:26:20;96886.28;;;13.81;75.27
57644;BME280;43474;46.510;6.686;2023-04-09T07:28:46;96883.78;;;13.91;75.99
57644;BME280;43474;46.510;6.686;2023-04-09T07:31:11;96886.63;;;14.06;76.38
57644;BME280;43474;46.510;6.686;2023-04-09T07:33:37;96883.38;;;14.43;75.26
57644;BME280;43474;46.510;6.686;2023-04-09T07:36:03;96883.75;;;14.52;72.14
57644;BME280;43474;46.510;6.686;2023-04-09T07:38:28;96883.56;;;14.85;71.77
57644;BME280;43474;46.510;6.686;2023-04-09T07:40:54;96886.69;;;15.36;70.46
57644;BME280;43474;46.510;6.686;2023-04-09T07:43:20;96871.63;;;15.57;70.78
57644;BME280;43474;46.510;6.686;2023-04-09T07:45:49;96877.59;;;15.32;70.24
57644;BME280;43474;46.510;6.686;2023-04-09T07:48:16;96885.28;;;14.96;66.32
57644;BME280;43474;46.510;6.686;2023-04-09T07:50:42;96863.59;;;15.52;69.09
57644;BME280;43474;46.510;6.686;2023-04-09T07:53:09;96871.16;;;15.65;67.25
57644;BME280;43474;46.510;6.686;2023-04-09T07:55:36;96883.69;;;16.02;68.65
57644;BME280;43474;46.510;6.686;2023-04-09T07:58:01;96880.78;;;16.14;66.44
57644;BME280;43474;46.510;6.686;2023-04-09T08:00:28;96879.53;;;16.32;67.96
57644;BME280;43474;46.510;6.686;2023-04-09T08:02:53;96878.69;;;16.21;64.48
57644;BME280;43474;46.510;6.686;2023-04-09T08:05:19;96878.03;;;16.56;63.72
57644;BME280;43474;46.510;6.686;2023-04-09T08:07:45;96872.75;;;16.76;63.08
57644;BME280;43474;46.510;6.686;2023-04-09T08:10:11;96876.00;;;17.14;64.94
57644;BME280;43474;46.510;6.686;2023-04-09T08:12:39;96873.28;;;16.78;63.90
57644;BME280;43474;46.510;6.686;2023-04-09T08:15:05;96885.06;;;16.77;63.79
57644;BME280;43474;46.510;6.686;2023-04-09T08:17:31;96876.16;;;16.62;63.12
57644;BME280;43474;46.510;6.686;2023-04-09T08:19:57;96887.78;;;16.25;62.34
57644;BME280;43474;46.510;6.686;2023-04-09T08:22:22;96900.97;;;16.37;61.06
57644;BME280;43474;46.510;6.686;2023-04-09T08:24:51;96894.22;;;16.29;62.11
57644;BME280;43474;46.510;6.686;2023-04-09T08:27:17;96903.31;;;15.81;66.76
57644;BME280;43474;46.510;6.686;2023-04-09T08:29:43;96922.97;;;15.96;63.98
57644;BME280;43474;46.510;6.686;2023-04-09T08:32:09;96926.50;;;15.70;64.00
57644;BME280;43474;46.510;6.686;2023-04-09T08:34:35;96916.44;;;15.82;63.18
57644;BME280;43474;46.510;6.686;2023-04-09T08:37:00;96916.41;;;15.77;65.85
57644;BME280;43474;46.510;6.686;2023-04-09T08:39:26;96922.63;;;15.88;66.59
57644;BME280;43474;46.510;6.686;2023-04-09T08:41:51;96916.19;;;15.84;65.95
57644;BME280;43474;46.510;6.686;2023-04-09T08:44:17;96927.09;;;16.24;63.86
57644;BME280;43474;46.510;6.686;2023-04-09T08:46:43;96919.63;;;16.21;65.67
57644;BME280;43474;46.510;6.686;2023-04-09T08:49:09;96921.88;;;15.97;64.71
57644;BME280;43474;46.510;6.686;2023-04-09T08:51:37;96919.25;;;16.02;68.43
57644;BME280;43474;46.510;6.686;2023-04-09T08:54:03;96923.91;;;15.80;65.09
57644;BME280;43474;46.510;6.686;2023-04-09T08:56:29;96920.56;;;15.63;64.19
57644;BME280;43474;46.510;6.686;2023-04-09T08:58:55;96917.25;;;15.83;64.47
57644;BME280;43474;46.510;6.686;2023-04-09T09:01:25;96924.97;;;16.21;66.40
57644;BME280;43474;46.510;6.686;2023-04-09T09:03:56;96925.59;;;15.91;62.68
57644;BME280;43474;46.510;6.686;2023-04-09T09:06:24;96930.91;;;15.54;68.10
57644;BME280;43474;46.510;6.686;2023-04-09T09:09:09;96932.91;;;15.69;68.41
57644;BME280;43474;46.510;6.686;2023-04-09T09:14:04;96940.09;;;15.63;64.64
57644;BME280;43474;46.510;6.686;2023-04-09T09:16:29;96938.34;;;15.79;65.24
57644;BME280;43474;46.510;6.686;2023-04-09T09:18:57;96941.16;;;15.35;66.07
57644;BME280;43474;46.510;6.686;2023-04-09T09:21:24;96931.25;;;15.63;67.37
57644;BME280;43474;46.510;6.686;2023-04-09T09:23:50;96943.19;;;15.82;67.51
57644;BME280;43474;46.510;6.686;2023-04-09T09:26:18;96910.88;;;15.89;67.86
57644;BME280;43474;46.510;6.686;2023-04-09T09:28:45;96932.66;;;15.70;62.33
57644;BME280;43474;46.510;6.686;2023-04-09T09:31:13;96924.63;;;15.70;63.76
57644;BME280;43474;46.510;6.686;2023-04-09T09:33:39;96912.91;;;15.71;67.65
57644;BME280;43474;46.510;6.686;2023-04-09T09:36:05;96888.66;;;15.51;65.99
57644;BME280;43474;46.510;6.686;2023-04-09T09:38:53;96923.56;;;15.66;64.19
57644;BME280;43474;46.510;6.686;2023-04-09T09:41:19;96931.47;;;15.93;61.33
57644;BME280;43474;46.510;6.686;2023-04-09T09:43:45;96915.59;;;15.44;65.13
57644;BME280;43474;46.510;6.686;2023-04-09T09:46:11;96925.25;;;15.77;65.53
57644;BME280;43474;46.510;6.686;2023-04-09T09:48:37;96913.34;;;16.00;69.77
57644;BME280;43474;46.510;6.686;2023-04-09T09:51:08;96911.56;;;16.16;63.83
57644;BME280;43474;46.510;6.686;2023-04-09T09:53:35;96898.75;;;16.23;66.54
57644;BME280;43474;46.510;6.686;2023-04-09T09:56:04;96894.78;;;15.79;63.34
57644;BME280;43474;46.510;6.686;2023-04-09T09:58:37;96898.66;;;16.03;67.01
57644;BME280;43474;46.510;6.686;2023-04-09T10:01:11;96901.44;;;16.28;62.75
57644;BME280;43474;46.510;6.686;2023-04-09T10:03:38;96913.78;;;16.35;61.17
57644;BME280;43474;46.510;6.686;2023-04-09T10:06:08;96902.59;;;15.53;62.30
57644;BME280;43474;46.510;6.686;2023-04-09T10:08:35;96885.81;;;15.63;61.89
57644;BME280;43474;46.510;6.686;2023-04-09T10:11:04;96890.56;;;15.56;62.09
57644;BME280;43474;46.510;6.686;2023-04-09T10:13:37;96896.03;;;15.71;60.06
57644;BME280;43474;46.510;6.686;2023-04-09T10:16:03;96895.50;;;15.69;64.10
57644;BME280;43474;46.510;6.686;2023-04-09T10:18:30;96888.09;;;15.44;63.16
57644;BME280;43474;46.510;6.686;2023-04-09T10:21:07;96903.16;;;15.92;60.40
57644;BME280;43474;46.510;6.686;2023-04-09T10:23:39;96873.75;;;15.92;59.51
57644;BME280;43474;46.510;6.686;2023-04-09T10:26:06;96902.41;;;16.02;59.58
57644;BME280;43474;46.510;6.686;2023-04-09T10:28:32;96899.50;;;16.09;60.22
57644;BME280;43474;46.510;6.686;2023-04-09T10:30:58;96900.44;;;15.87;59.80
57644;BME280;43474;46.510;6.686;2023-04-09T10:33:25;96898.03;;;15.91;59.72
57644;BME280;43474;46.510;6.686;2023-04-09T10:35:53;96890.69;;;16.13;61.46
57644;BME280;43474;46.510;6.686;2023-04-09T10:38:40;96882.00;;;16.43;57.72
57644;BME280;43474;46.510;6.686;2023-04-09T10:41:13;96886.78;;;16.36;56.96
57644;BME280;43474;46.510;6.686;2023-04-09T10:43:40;96891.09;;;16.47;58.45
57644;BME280;43474;46.510;6.686;2023-04-09T10:46:20;96886.31;;;16.54;60.01
57644;BME280;43474;46.510;6.686;2023-04-09T10:49:06;96888.84;;;16.97;59.93
57644;BME280;43474;46.510;6.686;2023-04-09T10:51:37;96858.84;;;16.85;55.05
57644;BME280;43474;46.510;6.686;2023-04-09T10:59:48;96874.38;;;16.88;55.54
57644;BME280;43474;46.510;6.686;2023-04-09T11:08:08;96870.72;;;16.31;58.44
57644;BME280;43474;46.510;6.686;2023-04-09T11:10:34;96878.00;;;16.51;56.75
57644;BME280;43474;46.510;6.686;2023-04-09T11:13:00;96861.16;;;16.55;56.82
57644;BME280;43474;46.510;6.686;2023-04-09T11:15:27;96867.59;;;16.65;57.18
57644;BME280;43474;46.510;6.686;2023-04-09T11:17:53;96855.66;;;17.23;55.11
57644;BME280;43474;46.510;6.686;2023-04-09T11:20:20;96842.00;;;16.99;54.85
57644;BME280;43474;46.510;6.686;2023-04-09T11:22:47;96846.81;;;16.92;56.48
57644;BME280;43474;46.510;6.686;2023-04-09T11:25:18;96854.84;;;16.92;59.33
57644;BME280;43474;46.510;6.686;2023-04-09T11:27:44;96843.03;;;16.78;57.79
57644;BME280;43474;46.510;6.686;2023-04-09T11:30:11;96848.84;;;16.54;57.88
57644;BME280;43474;46.510;6.686;2023-04-09T11:32:36;96848.94;;;17.00;58.52
57644;BME280;43474;46.510;6.686;2023-04-09T11:35:02;96838.75;;;16.72;57.55
57644;BME280;43474;46.510;6.686;2023-04-09T11:37:28;96841.47;;;16.97;54.89
57644;BME280;43474;46.510;6.686;2023-04-09T11:39:53;96844.41;;;17.16;58.52
57644;BME280;43474;46.510;6.686;2023-04-09T11:42:20;96835.81;;;17.40;54.40
57644;BME280;43474;46.510;6.686;2023-04-09T11:44:47;96831.53;;;17.34;56.84
57644;BME280;43474;46.510;6.686;2023-04-09T11:47:14;96833.44;;;17.28;61.18
57644;BME280;43474;46.510;6.686;2023-04-09T11:49:42;96827.28;;;17.02;56.88
57644;BME280;43474;46.510;6.686;2023-04-09T11:52:08;96844.94;;;17.18;55.84
57644;BME280;43474;46.510;6.686;2023-04-09T11:54:35;96840.38;;;17.34;57.44
57644;BME280;43474;46.510;6.686;2023-04-09T11:57:02;96831.28;;;17.10;59.19
57644;BME280;43474;46.510;6.686;2023-04-09T11:59:29;96835.56;;;17.05;58.70
57644;BME280;43474;46.510;6.686;2023-04-09T12:01:56;96826.47;;;17.17;58.44
57644;BME280;43474;46.510;6.686;2023-04-09T12:04:23;96829.41;;;17.25;56.08
57644;BME280;43474;46.510;6.686;2023-04-09T12:06:48;96817.34;;;17.43;56.58
57644;BME280;43474;46.510;6.686;2023-04-09T12:09:14;96831.03;;;17.26;57.46
57644;BME280;43474;46.510;6.686;2023-04-09T12:11:44;96809.59;;;17.26;58.63
57644;BME280;43474;46.510;6.686;2023-04-09T12:14:15;96823.78;;;17.42;56.65
57644;BME280;43474;46.510;6.686;2023-04-09T12:16:41;96821.34;;;17.61;57.12
57644;BME280;43474;46.510;6.686;2023-04-09T12:19:10;96803.97;;;17.23;55.68
57644;BME280;43474;46.510;6.686;2023-04-09T12:21:52;96817.88;;;17.20;55.86
57644;BME280;43474;46.510;6.686;2023-04-09T12:24:22;96812.00;;;17.33;55.67
57644;BME280;43474;46.510;6.686;2023-04-09T12:26:48;96813.88;;;17.02;58.23
57644;BME280;43474;46.510;6.686;2023-04-09T12:29:15;96802.63;;;17.10;54.94
57644;BME280;43474;46.510;6.686;2023-04-09T12:31:41;96800.22;;;16.73;55.93
57644;BME280;43474;46.510;6.686;2023-04-09T12:34:07;96799.94;;;16.95;56.37
57644;BME280;43474;46.510;6.686;2023-04-09T12:36:33;96812.25;;;16.80;59.35
57644;BME280;43474;46.510;6.686;2023-04-09T12:38:58;96806.38;;;16.99;59.11
57644;BME280;43474;46.510;6.686;2023-04-09T12:41:24;96812.28;;;17.01;58.65
57644;BME280;43474;46.510;6.686;2023-04-09T12:43:50;96803.19;;;16.87;58.54
57644;BME280;43474;46.510;6.686;2023-04-09T12:46:17;96797.81;;;16.87;57.75
57644;BME280;43474;46.510;6.686;2023-04-09T12:48:43;96793.00;;;16.78;58.75
57644;BME280;43474;46.510;6.686;2023-04-09T12:51:09;96790.31;;;16.73;55.91
57644;BME280;43474;46.510;6.686;2023-04-09T12:53:35;96801.31;;;17.02;58.25
57644;BME280;43474;46.510;6.686;2023-04-09T12:56:01;96786.31;;;16.91;58.75
57644;BME280;43474;46.510;6.686;2023-04-09T12:58:27;96797.03;;;17.01;56.52
57644;BME280;43474;46.510;6.686;2023-04-09T13:00:53;96801.81;;;16.99;58.48
57644;BME280;43474;46.510;6.686;2023-04-09T13:03:19;96793.78;;;16.89;57.52
57644;BME280;43474;46.510;6.686;2023-04-09T13:05:45;96791.38;;;17.08;59.49
57644;BME280;43474;46.510;6.686;2023-04-09T13:08:11;96789.75;;;17.27;57.10
57644;BME280;43474;46.510;6.686;2023-04-09T13:10:37;96771.03;;;17.17;60.80
57644;BME280;43474;46.510;6.686;2023-04-09T13:13:03;96772.84;;;17.52;58.20
57644;BME280;43474;46.510;6.686;2023-04-09T13:15:29;96781.44;;;17.44;60.86
57644;BME280;43474;46.510;6.686;2023-04-09T13:17:56;96768.00;;;17.54;60.74